sensor_id;sensor_type;location;lat;lon;timestamp;temperature;humidity
12043;DHT22;6082;49.306;12.862;2023-07-16T00:01:45;25.00;89.90
12043;DHT22;6082;49.306;12.862;2023-07-16T00:04:11;25.00;90.00
12043;DHT22;6082;49.306;12.862;2023-07-16T00:06:36;25.00;90.20
12043;DHT22;6082;49.306;12.862;2023-07-16T00:09:02;25.00;90.20
12043;DHT22;6082;49.306;12.862;2023-07-16T00:11:28;25.00;90.20
12043;DHT22;6082;49.306;12.862;2023-07-16T00:13:54;25.00;90.30
12043;DHT22;6082;49.306;12.862;2023-07-16T00:16:20;24.90;90.10
12043;DHT22;6082;49.306;12.862;2023-07-16T00:18:46;24.90;90.10
12043;DHT22;6082;49.306;12.862;2023-07-16T00:21:12;25.00;90.30
12043;DHT22;6082;49.306;12.862;2023-07-16T00:23:38;25.00;90.40
12043;DHT22;6082;49.306;12.862;2023-07-16T00:26:06;24.90;90.30
12043;DHT22;6082;49.306;12.862;2023-07-16T00:28:32;24.90;90.40
12043;DHT22;6082;49.306;12.862;2023-07-16T00:30:58;24.90;90.20
12043;DHT22;6082;49.306;12.862;2023-07-16T00:33:24;25.00;90.30
12043;DHT22;6082;49.306;12.862;2023-07-16T00:35:50;24.90;90.30
12043;DHT22;6082;49.306;12.862;2023-07-16T00:38:19;24.90;90.70
12043;DHT22;6082;49.306;12.862;2023-07-16T00:40:45;24.90;90.70
12043;DHT22;6082;49.306;12.862;2023-07-16T00:43:11;24.80;90.70
12043;DHT22;6082;49.306;12.862;2023-07-16T00:45:38;24.90;90.70
12043;DHT22;6082;49.306;12.862;2023-07-16T00:48:06;24.90;90.70
12043;DHT22;6082;49.306;12.862;2023-07-16T00:50:33;24.80;90.90
12043;DHT22;6082;49.306;12.862;2023-07-16T00:53:02;24.80;90.70
12043;DHT22;6082;49.306;12.862;2023-07-16T00:55:29;24.80;90.70
12043;DHT22;6082;49.306;12.862;2023-07-16T00:58:01;24.80;90.50
12043;DHT22;6082;49.306;12.862;2023-07-16T01:00:28;24.80;90.40
12043;DHT22;6082;49.306;12.862;2023-07-16T01:02:54;24.80;90.50
12043;DHT22;6082;49.306;12.862;2023-07-16T01:05:21;24.70;90.70
12043;DHT22;6082;49.306;12.862;2023-07-16T01:07:55;24.70;91.20
12043;DHT22;6082;49.306;12.862;2023-07-16T01:10:23;24.70;91.20
12043;DHT22;6082;49.306;12.862;2023-07-16T01:12:53;24.70;90.80
12043;DHT22;6082;49.306;12.862;2023-07-16T01:15:18;24.60;90.60
12043;DHT22;6082;49.306;12.862;2023-07-16T01:17:44;24.60;90.60
12043;DHT22;6082;49.306;12.862;2023-07-16T01:20:10;24.70;90.40
12043;DHT22;6082;49.306;12.862;2023-07-16T01:22:52;24.70;90.20
12043;DHT22;6082;49.306;12.862;2023-07-16T01:28:06;24.70;90.10
12043;DHT22;6082;49.306;12.862;2023-07-16T01:30:38;24.70;90.30
12043;DHT22;6082;49.306;12.862;2023-07-16T01:33:05;24.70;90.20
12043;DHT22;6082;49.306;12.862;2023-07-16T01:35:32;24.70;90.50
12043;DHT22;6082;49.306;12.862;2023-07-16T01:37:59;24.70;91.50
12043;DHT22;6082;49.306;12.862;2023-07-16T01:40:25;24.60;91.50
12043;DHT22;6082;49.306;12.862;2023-07-16T01:42:50;24.60;91.30
12043;DHT22;6082;49.306;12.862;2023-07-16T01:45:16;24.60;91.10
12043;DHT22;6082;49.306;12.862;2023-07-16T01:50:26;24.50;92.00
12043;DHT22;6082;49.306;12.862;2023-07-16T01:52:52;24.50;93.00
12043;DHT22;6082;49.306;12.862;2023-07-16T01:55:18;24.40;94.20
12043;DHT22;6082;49.306;12.862;2023-07-16T01:57:47;24.40;94.80
12043;DHT22;6082;49.306;12.862;2023-07-16T02:00:13;24.40;95.90
12043;DHT22;6082;49.306;12.862;2023-07-16T02:02:38;24.40;97.00
12043;DHT22;6082;49.306;12.862;2023-07-16T02:05:05;24.40;97.40
12043;DHT22;6082;49.306;12.862;2023-07-16T02:07:30;24.30;97.80
12043;DHT22;6082;49.306;12.862;2023-07-16T02:09:56;24.30;97.80
12043;DHT22;6082;49.306;12.862;2023-07-16T02:12:22;24.30;98.20
12043;DHT22;6082;49.306;12.862;2023-07-16T02:14:47;24.20;98.00
12043;DHT22;6082;49.306;12.862;2023-07-16T02:17:13;24.20;98.10
12043;DHT22;6082;49.306;12.862;2023-07-16T02:19:39;24.20;98.60
12043;DHT22;6082;49.306;12.862;2023-07-16T02:22:05;24.10;98.90
12043;DHT22;6082;49.306;12.862;2023-07-16T02:24:30;24.10;99.40
12043;DHT22;6082;49.306;12.862;2023-07-16T02:26:56;24.10;99.80
12043;DHT22;6082;49.306;12.862;2023-07-16T02:29:22;24.10;99.60
12043;DHT22;6082;49.306;12.862;2023-07-16T02:31:48;24.00;99.40
12043;DHT22;6082;49.306;12.862;2023-07-16T02:34:14;24.00;99.40
12043;DHT22;6082;49.306;12.862;2023-07-16T02:36:39;24.00;99.70
12043;DHT22;6082;49.306;12.862;2023-07-16T02:39:05;23.90;99.40
12043;DHT22;6082;49.306;12.862;2023-07-16T02:41:31;23.90;99.70
12043;DHT22;6082;49.306;12.862;2023-07-16T02:44:01;23.90;99.90
12043;DHT22;6082;49.306;12.862;2023-07-16T02:46:27;23.90;99.90
12043;DHT22;6082;49.306;12.862;2023-07-16T02:48:53;23.90;99.90
12043;DHT22;6082;49.306;12.862;2023-07-16T02:51:19;23.80;99.90
12043;DHT22;6082;49.306;12.862;2023-07-16T02:53:44;23.80;99.90
12043;DHT22;6082;49.306;12.862;2023-07-16T02:56:10;23.70;99.90
12043;DHT22;6082;49.306;12.862;2023-07-16T02:58:36;23.70;99.90
12043;DHT22;6082;49.306;12.862;2023-07-16T03:01:02;23.70;99.90
12043;DHT22;6082;49.306;12.862;2023-07-16T03:03:27;23.70;99.90
12043;DHT22;6082;49.306;12.862;2023-07-16T03:05:53;23.70;99.90
12043;DHT22;6082;49.306;12.862;2023-07-16T03:08:19;23.70;99.90
12043;DHT22;6082;49.306;12.862;2023-07-16T03:10:45;23.60;99.90
12043;DHT22;6082;49.306;12.862;2023-07-16T03:13:11;23.60;99.90
12043;DHT22;6082;49.306;12.862;2023-07-16T03:15:39;23.60;99.90
12043;DHT22;6082;49.306;12.862;2023-07-16T03:18:05;23.60;99.90
12043;DHT22;6082;49.306;12.862;2023-07-16T03:20:31;23.50;99.90
12043;DHT22;6082;49.306;12.862;2023-07-16T03:22:57;23.50;99.90
12043;DHT22;6082;49.306;12.862;2023-07-16T03:25:22;23.50;99.90
12043;DHT22;6082;49.306;12.862;2023-07-16T03:27:48;23.40;99.90
12043;DHT22;6082;49.306;12.862;2023-07-16T03:30:14;23.40;99.90
12043;DHT22;6082;49.306;12.862;2023-07-16T03:32:40;23.30;99.90
12043;DHT22;6082;49.306;12.862;2023-07-16T03:35:06;23.30;99.90
12043;DHT22;6082;49.306;12.862;2023-07-16T03:37:31;23.20;99.90
12043;DHT22;6082;49.306;12.862;2023-07-16T03:40:12;23.30;99.90
12043;DHT22;6082;49.306;12.862;2023-07-16T03:42:38;23.20;99.90
12043;DHT22;6082;49.306;12.862;2023-07-16T03:45:04;23.30;99.90
12043;DHT22;6082;49.306;12.862;2023-07-16T03:47:30;23.30;99.90
12043;DHT22;6082;49.306;12.862;2023-07-16T03:49:56;23.30;99.90
12043;DHT22;6082;49.306;12.862;2023-07-16T03:52:22;23.30;99.90
12043;DHT22;6082;49.306;12.862;2023-07-16T03:54:48;23.30;99.90
12043;DHT22;6082;49.306;12.862;2023-07-16T03:57:14;23.30;99.90
12043;DHT22;6082;49.306;12.862;2023-07-16T03:59:40;23.20;99.90
12043;DHT22;6082;49.306;12.862;2023-07-16T04:02:06;23.20;99.90
12043;DHT22;6082;49.306;12.862;2023-07-16T04:04:31;23.20;99.90
12043;DHT22;6082;49.306;12.862;2023-07-16T04:06:57;23.20;99.90
12043;DHT22;6082;49.306;12.862;2023-07-16T04:09:23;23.20;99.90
12043;DHT22;6082;49.306;12.862;2023-07-16T04:11:48;23.10;99.90
12043;DHT22;6082;49.306;12.862;2023-07-16T04:14:14;23.10;99.90
12043;DHT22;6082;49.306;12.862;2023-07-16T04:16:40;23.10;99.90
12043;DHT22;6082;49.306;12.862;2023-07-16T04:19:05;23.10;99.90
12043;DHT22;6082;49.306;12.862;2023-07-16T04:21:32;23.10;99.90
12043;DHT22;6082;49.306;12.862;2023-07-16T04:23:58;23.10;99.90
12043;DHT22;6082;49.306;12.862;2023-07-16T04:26:24;23.10;99.90
12043;DHT22;6082;49.306;12.862;2023-07-16T04:28:50;23.10;99.90
12043;DHT22;6082;49.306;12.862;2023-07-16T04:31:15;23.10;99.90
12043;DHT22;6082;49.306;12.862;2023-07-16T04:33:41;23.20;99.90
12043;DHT22;6082;49.306;12.862;2023-07-16T04:36:07;23.10;99.90
12043;DHT22;6082;49.306;12.862;2023-07-16T04:38:32;23.10;99.90
12043;DHT22;6082;49.306;12.862;2023-07-16T04:40:58;23.10;99.90
12043;DHT22;6082;49.306;12.862;2023-07-16T04:43:24;23.10;99.90
12043;DHT22;6082;49.306;12.862;2023-07-16T04:45:50;23.10;99.90
12043;DHT22;6082;49.306;12.862;2023-07-16T04:48:15;23.10;99.90
12043;DHT22;6082;49.306;12.862;2023-07-16T04:50:41;23.10;99.90
12043;DHT22;6082;49.306;12.862;2023-07-16T04:53:07;23.10;99.90
12043;DHT22;6082;49.306;12.862;2023-07-16T04:55:39;23.00;99.90
12043;DHT22;6082;49.306;12.862;2023-07-16T04:58:05;23.00;99.90
12043;DHT22;6082;49.306;12.862;2023-07-16T05:00:34;23.10;99.90
12043;DHT22;6082;49.306;12.862;2023-07-16T05:03:00;23.00;99.90
12043;DHT22;6082;49.306;12.862;2023-07-16T05:05:27;23.00;99.90
12043;DHT22;6082;49.306;12.862;2023-07-16T05:07:52;23.00;99.90
12043;DHT22;6082;49.306;12.862;2023-07-16T05:10:18;23.00;99.90
12043;DHT22;6082;49.306;12.862;2023-07-16T05:12:44;22.90;99.90
12043;DHT22;6082;49.306;12.862;2023-07-16T05:15:10;22.90;99.90
12043;DHT22;6082;49.306;12.862;2023-07-16T05:17:35;22.90;99.90
12043;DHT22;6082;49.306;12.862;2023-07-16T05:20:01;22.90;99.90
12043;DHT22;6082;49.306;12.862;2023-07-16T05:22:28;22.90;99.90
12043;DHT22;6082;49.306;12.862;2023-07-16T05:24:54;22.90;99.90
12043;DHT22;6082;49.306;12.862;2023-07-16T05:27:20;22.90;99.90
12043;DHT22;6082;49.306;12.862;2023-07-16T05:29:46;22.90;99.90
12043;DHT22;6082;49.306;12.862;2023-07-16T05:32:13;22.90;99.90
12043;DHT22;6082;49.306;12.862;2023-07-16T05:34:39;22.90;99.90
12043;DHT22;6082;49.306;12.862;2023-07-16T05:37:05;22.80;99.90
12043;DHT22;6082;49.306;12.862;2023-07-16T05:39:31;22.80;99.90
12043;DHT22;6082;49.306;12.862;2023-07-16T05:41:57;22.80;99.90
12043;DHT22;6082;49.306;12.862;2023-07-16T05:44:22;22.70;99.90
12043;DHT22;6082;49.306;12.862;2023-07-16T05:46:48;22.70;99.90
12043;DHT22;6082;49.306;12.862;2023-07-16T05:49:14;22.70;99.90
12043;DHT22;6082;49.306;12.862;2023-07-16T05:51:40;22.60;99.90
12043;DHT22;6082;49.306;12.862;2023-07-16T05:54:05;22.60;99.90
12043;DHT22;6082;49.306;12.862;2023-07-16T05:56:32;22.60;99.90
12043;DHT22;6082;49.306;12.862;2023-07-16T05:58:58;22.60;99.90
12043;DHT22;6082;49.306;12.862;2023-07-16T06:01:23;22.50;99.90
12043;DHT22;6082;49.306;12.862;2023-07-16T06:03:49;22.50;99.90
12043;DHT22;6082;49.306;12.862;2023-07-16T06:06:15;22.50;99.90
12043;DHT22;6082;49.306;12.862;2023-07-16T06:08:41;22.50;99.90
12043;DHT22;6082;49.306;12.862;2023-07-16T06:11:07;22.50;99.90
12043;DHT22;6082;49.306;12.862;2023-07-16T06:13:33;22.50;99.90
12043;DHT22;6082;49.306;12.862;2023-07-16T06:15:59;22.40;99.90
12043;DHT22;6082;49.306;12.862;2023-07-16T06:18:24;22.40;99.90
12043;DHT22;6082;49.306;12.862;2023-07-16T06:20:50;22.30;99.90
12043;DHT22;6082;49.306;12.862;2023-07-16T06:23:17;22.30;99.90
12043;DHT22;6082;49.306;12.862;2023-07-16T06:25:43;22.20;99.90
12043;DHT22;6082;49.306;12.862;2023-07-16T06:28:14;22.20;99.90
12043;DHT22;6082;49.306;12.862;2023-07-16T06:30:40;22.10;99.90
12043;DHT22;6082;49.306;12.862;2023-07-16T06:33:06;22.10;99.90
12043;DHT22;6082;49.306;12.862;2023-07-16T06:35:32;22.10;99.90
12043;DHT22;6082;49.306;12.862;2023-07-16T06:37:58;22.10;99.90
12043;DHT22;6082;49.306;12.862;2023-07-16T06:40:24;22.10;99.90
12043;DHT22;6082;49.306;12.862;2023-07-16T06:42:50;22.10;99.90
12043;DHT22;6082;49.306;12.862;2023-07-16T06:45:17;22.10;99.90
12043;DHT22;6082;49.306;12.862;2023-07-16T06:47:44;22.00;99.90
12043;DHT22;6082;49.306;12.862;2023-07-16T06:50:10;22.00;99.90
12043;DHT22;6082;49.306;12.862;2023-07-16T06:52:35;22.00;99.90
12043;DHT22;6082;49.306;12.862;2023-07-16T06:55:01;22.00;99.90
12043;DHT22;6082;49.306;12.862;2023-07-16T06:57:27;22.00;99.90
12043;DHT22;6082;49.306;12.862;2023-07-16T06:59:52;22.00;99.90
12043;DHT22;6082;49.306;12.862;2023-07-16T07:02:19;21.90;99.90
12043;DHT22;6082;49.306;12.862;2023-07-16T07:04:45;21.90;99.90
12043;DHT22;6082;49.306;12.862;2023-07-16T07:07:11;21.90;99.90
12043;DHT22;6082;49.306;12.862;2023-07-16T07:09:37;21.90;99.90
12043;DHT22;6082;49.306;12.862;2023-07-16T07:12:03;21.90;99.90
12043;DHT22;6082;49.306;12.862;2023-07-16T07:14:29;21.90;99.90
12043;DHT22;6082;49.306;12.862;2023-07-16T07:16:54;21.90;99.90
12043;DHT22;6082;49.306;12.862;2023-07-16T07:19:20;21.90;99.90
12043;DHT22;6082;49.306;12.862;2023-07-16T07:21:46;22.00;99.90
12043;DHT22;6082;49.306;12.862;2023-07-16T07:24:12;22.00;99.90
12043;DHT22;6082;49.306;12.862;2023-07-16T07:26:38;22.00;99.90
12043;DHT22;6082;49.306;12.862;2023-07-16T07:29:04;22.00;99.90
12043;DHT22;6082;49.306;12.862;2023-07-16T07:31:30;21.90;99.90
12043;DHT22;6082;49.306;12.862;2023-07-16T07:33:57;21.90;99.90
12043;DHT22;6082;49.306;12.862;2023-07-16T07:36:28;21.90;99.90
12043;DHT22;6082;49.306;12.862;2023-07-16T07:38:54;21.80;99.90
12043;DHT22;6082;49.306;12.862;2023-07-16T07:41:23;21.80;99.90
12043;DHT22;6082;49.306;12.862;2023-07-16T07:43:48;21.80;99.90
12043;DHT22;6082;49.306;12.862;2023-07-16T07:46:14;21.80;99.90
12043;DHT22;6082;49.306;12.862;2023-07-16T07:48:40;21.80;99.90
12043;DHT22;6082;49.306;12.862;2023-07-16T07:51:06;21.80;99.90
12043;DHT22;6082;49.306;12.862;2023-07-16T07:53:32;21.80;99.90
12043;DHT22;6082;49.306;12.862;2023-07-16T07:55:57;21.80;99.90
12043;DHT22;6082;49.306;12.862;2023-07-16T07:58:23;21.80;99.90
12043;DHT22;6082;49.306;12.862;2023-07-16T08:00:49;21.80;99.90
12043;DHT22;6082;49.306;12.862;2023-07-16T08:03:15;21.80;99.90
12043;DHT22;6082;49.306;12.862;2023-07-16T08:05:40;21.70;99.90
12043;DHT22;6082;49.306;12.862;2023-07-16T08:08:06;21.80;99.90
12043;DHT22;6082;49.306;12.862;2023-07-16T08:10:32;21.70;99.90
12043;DHT22;6082;49.306;12.862;2023-07-16T08:12:58;21.70;99.90
12043;DHT22;6082;49.306;12.862;2023-07-16T08:15:23;21.60;99.90
12043;DHT22;6082;49.306;12.862;2023-07-16T08:17:49;21.60;99.90
12043;DHT22;6082;49.306;12.862;2023-07-16T08:20:15;21.60;99.90
12043;DHT22;6082;49.306;12.862;2023-07-16T08:22:41;21.70;99.90
12043;DHT22;6082;49.306;12.862;2023-07-16T08:25:07;21.60;99.90
12043;DHT22;6082;49.306;12.862;2023-07-16T08:27:34;21.60;99.90
12043;DHT22;6082;49.306;12.862;2023-07-16T08:30:00;21.60;99.90
12043;DHT22;6082;49.306;12.862;2023-07-16T08:32:25;21.60;99.90
12043;DHT22;6082;49.306;12.862;2023-07-16T08:34:51;21.60;99.90
12043;DHT22;6082;49.306;12.862;2023-07-16T08:37:17;21.60;99.90
12043;DHT22;6082;49.306;12.862;2023-07-16T08:39:42;21.60;99.90
12043;DHT22;6082;49.306;12.862;2023-07-16T08:42:10;21.60;99.90
12043;DHT22;6082;49.306;12.862;2023-07-16T08:44:37;21.60;99.90
12043;DHT22;6082;49.306;12.862;2023-07-16T08:47:04;21.60;99.90
12043;DHT22;6082;49.306;12.862;2023-07-16T08:49:31;21.60;99.90
12043;DHT22;6082;49.306;12.862;2023-07-16T08:51:57;21.60;99.90
12043;DHT22;6082;49.306;12.862;2023-07-16T08:54:23;21.60;99.90
12043;DHT22;6082;49.306;12.862;2023-07-16T08:56:51;21.70;99.90
12043;DHT22;6082;49.306;12.862;2023-07-16T08:59:17;21.70;99.90
12043;DHT22;6082;49.306;12.862;2023-07-16T09:01:45;21.80;99.90
12043;DHT22;6082;49.306;12.862;2023-07-16T09:04:11;21.80;99.90
12043;DHT22;6082;49.306;12.862;2023-07-16T09:06:37;21.70;99.90
12043;DHT22;6082;49.306;12.862;2023-07-16T09:09:03;21.70;99.90
12043;DHT22;6082;49.306;12.862;2023-07-16T09:11:29;21.70;99.90
12043;DHT22;6082;49.306;12.862;2023-07-16T09:13:54;21.80;99.90
12043;DHT22;6082;49.306;12.862;2023-07-16T09:16:20;21.80;99.90
12043;DHT22;6082;49.306;12.862;2023-07-16T09:18:46;21.80;99.90
12043;DHT22;6082;49.306;12.862;2023-07-16T09:21:13;21.80;99.90
12043;DHT22;6082;49.306;12.862;2023-07-16T09:23:39;21.90;99.90
12043;DHT22;6082;49.306;12.862;2023-07-16T09:26:07;21.90;99.90
12043;DHT22;6082;49.306;12.862;2023-07-16T09:28:33;21.90;99.90
12043;DHT22;6082;49.306;12.862;2023-07-16T09:31:06;22.00;99.90
12043;DHT22;6082;49.306;12.862;2023-07-16T09:33:32;22.00;99.90
12043;DHT22;6082;49.306;12.862;2023-07-16T09:35:58;22.10;99.90
12043;DHT22;6082;49.306;12.862;2023-07-16T09:38:24;22.10;99.90
12043;DHT22;6082;49.306;12.862;2023-07-16T09:40:51;22.20;99.90
12043;DHT22;6082;49.306;12.862;2023-07-16T09:43:18;22.20;99.90
12043;DHT22;6082;49.306;12.862;2023-07-16T09:45:44;22.20;99.90
12043;DHT22;6082;49.306;12.862;2023-07-16T09:48:10;22.20;99.90
12043;DHT22;6082;49.306;12.862;2023-07-16T09:50:36;22.20;99.90
12043;DHT22;6082;49.306;12.862;2023-07-16T09:53:04;22.20;99.90
12043;DHT22;6082;49.306;12.862;2023-07-16T09:55:35;22.20;99.90
12043;DHT22;6082;49.306;12.862;2023-07-16T09:58:03;22.20;99.90
12043;DHT22;6082;49.306;12.862;2023-07-16T10:00:32;22.30;99.90
12043;DHT22;6082;49.306;12.862;2023-07-16T10:02:59;22.20;99.90
12043;DHT22;6082;49.306;12.862;2023-07-16T10:05:27;22.20;99.90
12043;DHT22;6082;49.306;12.862;2023-07-16T10:08:00;22.30;99.90
12043;DHT22;6082;49.306;12.862;2023-07-16T10:10:39;22.30;99.90
12043;DHT22;6082;49.306;12.862;2023-07-16T10:13:07;22.30;99.90
12043;DHT22;6082;49.306;12.862;2023-07-16T10:15:35;22.30;99.90
12043;DHT22;6082;49.306;12.862;2023-07-16T10:18:01;22.30;99.90
12043;DHT22;6082;49.306;12.862;2023-07-16T10:20:37;22.40;99.90
12043;DHT22;6082;49.306;12.862;2023-07-16T10:23:13;22.40;99.90
12043;DHT22;6082;49.306;12.862;2023-07-16T10:25:40;22.50;99.90
12043;DHT22;6082;49.306;12.862;2023-07-16T10:28:06;22.60;99.90
12043;DHT22;6082;49.306;12.862;2023-07-16T10:30:33;22.60;99.90
12043;DHT22;6082;49.306;12.862;2023-07-16T10:33:03;22.70;99.90
12043;DHT22;6082;49.306;12.862;2023-07-16T10:35:41;22.80;99.90
12043;DHT22;6082;49.306;12.862;2023-07-16T10:38:07;22.80;99.90
12043;DHT22;6082;49.306;12.862;2023-07-16T10:40:33;22.90;99.90
12043;DHT22;6082;49.306;12.862;2023-07-16T10:42:59;22.80;99.90
12043;DHT22;6082;49.306;12.862;2023-07-16T10:45:25;22.80;99.90
12043;DHT22;6082;49.306;12.862;2023-07-16T10:47:54;22.70;99.90
12043;DHT22;6082;49.306;12.862;2023-07-16T10:50:21;22.70;99.90
12043;DHT22;6082;49.306;12.862;2023-07-16T10:52:53;22.70;99.90
12043;DHT22;6082;49.306;12.862;2023-07-16T10:55:20;22.80;99.90
12043;DHT22;6082;49.306;12.862;2023-07-16T10:57:49;22.80;99.90
12043;DHT22;6082;49.306;12.862;2023-07-16T11:00:16;22.90;99.90
12043;DHT22;6082;49.306;12.862;2023-07-16T11:02:43;22.90;99.90
12043;DHT22;6082;49.306;12.862;2023-07-16T11:05:15;22.90;99.90
12043;DHT22;6082;49.306;12.862;2023-07-16T11:07:46;23.10;99.90
12043;DHT22;6082;49.306;12.862;2023-07-16T11:10:12;23.20;99.90
12043;DHT22;6082;49.306;12.862;2023-07-16T11:12:41;23.30;99.90
12043;DHT22;6082;49.306;12.862;2023-07-16T11:15:08;23.40;99.90
12043;DHT22;6082;49.306;12.862;2023-07-16T11:17:33;23.50;99.90
12043;DHT22;6082;49.306;12.862;2023-07-16T11:20:00;23.70;99.90
12043;DHT22;6082;49.306;12.862;2023-07-16T11:22:26;23.70;99.90
12043;DHT22;6082;49.306;12.862;2023-07-16T11:24:53;23.80;99.90
12043;DHT22;6082;49.306;12.862;2023-07-16T11:27:26;23.80;99.90
12043;DHT22;6082;49.306;12.862;2023-07-16T11:29:53;23.90;99.90
12043;DHT22;6082;49.306;12.862;2023-07-16T11:32:41;23.90;99.90
12043;DHT22;6082;49.306;12.862;2023-07-16T11:35:10;23.90;99.90
12043;DHT22;6082;49.306;12.862;2023-07-16T11:37:37;24.00;99.90
12043;DHT22;6082;49.306;12.862;2023-07-16T11:40:08;24.10;99.90
12043;DHT22;6082;49.306;12.862;2023-07-16T11:42:36;24.20;99.90
12043;DHT22;6082;49.306;12.862;2023-07-16T11:45:03;24.20;99.90
12043;DHT22;6082;49.306;12.862;2023-07-16T11:47:29;24.20;99.90
12043;DHT22;6082;49.306;12.862;2023-07-16T11:49:56;24.20;99.90
12043;DHT22;6082;49.306;12.862;2023-07-16T11:52:24;24.40;99.90
12043;DHT22;6082;49.306;12.862;2023-07-16T11:54:55;24.50;99.90
12043;DHT22;6082;49.306;12.862;2023-07-16T11:57:21;24.60;99.90
12043;DHT22;6082;49.306;12.862;2023-07-16T11:59:47;24.60;99.90
12043;DHT22;6082;49.306;12.862;2023-07-16T12:02:13;24.60;99.90
12043;DHT22;6082;49.306;12.862;2023-07-16T12:04:39;24.60;99.90
12043;DHT22;6082;49.306;12.862;2023-07-16T12:07:04;24.60;99.90
12043;DHT22;6082;49.306;12.862;2023-07-16T12:09:30;24.60;99.90
12043;DHT22;6082;49.306;12.862;2023-07-16T12:11:56;24.70;99.90
12043;DHT22;6082;49.306;12.862;2023-07-16T12:14:22;24.70;99.90
12043;DHT22;6082;49.306;12.862;2023-07-16T12:16:48;24.70;99.90
12043;DHT22;6082;49.306;12.862;2023-07-16T12:19:14;24.70;99.90
12043;DHT22;6082;49.306;12.862;2023-07-16T12:21:40;24.70;99.90
12043;DHT22;6082;49.306;12.862;2023-07-16T12:24:05;24.60;99.90
12043;DHT22;6082;49.306;12.862;2023-07-16T12:26:31;24.80;99.90
12043;DHT22;6082;49.306;12.862;2023-07-16T12:28:57;24.80;99.90
12043;DHT22;6082;49.306;12.862;2023-07-16T12:31:23;24.80;99.90
12043;DHT22;6082;49.306;12.862;2023-07-16T12:33:49;24.90;99.90
12043;DHT22;6082;49.306;12.862;2023-07-16T12:36:15;25.00;99.90
12043;DHT22;6082;49.306;12.862;2023-07-16T12:38:41;25.00;99.90
12043;DHT22;6082;49.306;12.862;2023-07-16T12:41:07;25.20;99.90
12043;DHT22;6082;49.306;12.862;2023-07-16T12:43:33;25.20;99.90
12043;DHT22;6082;49.306;12.862;2023-07-16T12:46:04;25.30;99.90
12043;DHT22;6082;49.306;12.862;2023-07-16T12:48:30;25.30;99.90
12043;DHT22;6082;49.306;12.862;2023-07-16T12:50:56;25.40;99.90
12043;DHT22;6082;49.306;12.862;2023-07-16T12:53:23;25.40;99.90
12043;DHT22;6082;49.306;12.862;2023-07-16T12:55:49;25.40;99.90
12043;DHT22;6082;49.306;12.862;2023-07-16T12:58:15;25.40;99.90
12043;DHT22;6082;49.306;12.862;2023-07-16T13:00:41;25.50;99.90
12043;DHT22;6082;49.306;12.862;2023-07-16T13:03:06;25.50;99.90
12043;DHT22;6082;49.306;12.862;2023-07-16T13:05:37;25.60;99.90
12043;DHT22;6082;49.306;12.862;2023-07-16T13:08:03;25.70;99.90
12043;DHT22;6082;49.306;12.862;2023-07-16T13:10:28;25.70;99.90
12043;DHT22;6082;49.306;12.862;2023-07-16T13:12:54;25.80;99.90
12043;DHT22;6082;49.306;12.862;2023-07-16T13:15:20;25.90;99.90
12043;DHT22;6082;49.306;12.862;2023-07-16T13:17:46;26.10;99.90
12043;DHT22;6082;49.306;12.862;2023-07-16T13:20:13;26.20;99.90
12043;DHT22;6082;49.306;12.862;2023-07-16T13:22:39;26.20;99.90
12043;DHT22;6082;49.306;12.862;2023-07-16T13:25:05;26.30;99.90
12043;DHT22;6082;49.306;12.862;2023-07-16T13:27:31;26.40;99.90
12043;DHT22;6082;49.306;12.862;2023-07-16T13:29:57;26.40;99.90
12043;DHT22;6082;49.306;12.862;2023-07-16T13:32:23;26.40;99.90
12043;DHT22;6082;49.306;12.862;2023-07-16T13:34:48;26.50;99.90
12043;DHT22;6082;49.306;12.862;2023-07-16T13:37:14;26.40;99.90
12043;DHT22;6082;49.306;12.862;2023-07-16T13:39:40;26.50;99.90
12043;DHT22;6082;49.306;12.862;2023-07-16T13:42:06;26.50;99.90
12043;DHT22;6082;49.306;12.862;2023-07-16T13:44:33;26.60;99.90
12043;DHT22;6082;49.306;12.862;2023-07-16T13:46:59;26.70;99.90
12043;DHT22;6082;49.306;12.862;2023-07-16T13:49:24;26.70;99.90
12043;DHT22;6082;49.306;12.862;2023-07-16T13:51:50;26.70;99.90
12043;DHT22;6082;49.306;12.862;2023-07-16T13:54:16;26.80;99.90
12043;DHT22;6082;49.306;12.862;2023-07-16T13:56:42;26.80;99.90
12043;DHT22;6082;49.306;12.862;2023-07-16T13:59:07;26.90;99.90
12043;DHT22;6082;49.306;12.862;2023-07-16T14:01:38;26.90;99.90
12043;DHT22;6082;49.306;12.862;2023-07-16T14:04:04;27.00;99.90
12043;DHT22;6082;49.306;12.862;2023-07-16T14:06:30;27.00;99.90
12043;DHT22;6082;49.306;12.862;2023-07-16T14:08:56;27.10;99.90
12043;DHT22;6082;49.306;12.862;2023-07-16T14:11:22;27.20;99.90
12043;DHT22;6082;49.306;12.862;2023-07-16T14:13:48;27.20;99.90
12043;DHT22;6082;49.306;12.862;2023-07-16T14:16:17;27.40;99.90
12043;DHT22;6082;49.306;12.862;2023-07-16T14:18:43;27.40;99.90
12043;DHT22;6082;49.306;12.862;2023-07-16T14:21:09;27.40;99.90
12043;DHT22;6082;49.306;12.862;2023-07-16T14:23:35;27.40;99.90
12043;DHT22;6082;49.306;12.862;2023-07-16T14:26:02;27.40;99.90
12043;DHT22;6082;49.306;12.862;2023-07-16T14:28:28;27.50;99.90
12043;DHT22;6082;49.306;12.862;2023-07-16T14:30:54;27.60;99.90
12043;DHT22;6082;49.306;12.862;2023-07-16T14:33:20;27.70;99.90
12043;DHT22;6082;49.306;12.862;2023-07-16T14:35:46;27.70;99.90
12043;DHT22;6082;49.306;12.862;2023-07-16T14:38:12;27.60;99.90
12043;DHT22;6082;49.306;12.862;2023-07-16T14:40:38;27.60;99.90
12043;DHT22;6082;49.306;12.862;2023-07-16T14:43:07;27.60;99.90
12043;DHT22;6082;49.306;12.862;2023-07-16T14:45:33;27.70;99.90
12043;DHT22;6082;49.306;12.862;2023-07-16T14:47:59;27.70;99.90
12043;DHT22;6082;49.306;12.862;2023-07-16T14:50:25;27.80;99.90
12043;DHT22;6082;49.306;12.862;2023-07-16T14:52:51;27.80;99.90
12043;DHT22;6082;49.306;12.862;2023-07-16T14:55:17;27.80;99.90
12043;DHT22;6082;49.306;12.862;2023-07-16T14:57:43;27.80;99.90
12043;DHT22;6082;49.306;12.862;2023-07-16T15:00:10;27.80;99.90
12043;DHT22;6082;49.306;12.862;2023-07-16T15:02:40;27.90;99.90
12043;DHT22;6082;49.306;12.862;2023-07-16T15:05:07;27.80;99.90
12043;DHT22;6082;49.306;12.862;2023-07-16T15:07:34;27.70;99.90
12043;DHT22;6082;49.306;12.862;2023-07-16T15:10:01;27.70;99.90
12043;DHT22;6082;49.306;12.862;2023-07-16T15:12:26;27.70;99.90
12043;DHT22;6082;49.306;12.862;2023-07-16T15:14:52;27.70;99.90
12043;DHT22;6082;49.306;12.862;2023-07-16T15:17:18;27.60;99.90
12043;DHT22;6082;49.306;12.862;2023-07-16T15:19:44;27.50;99.90
12043;DHT22;6082;49.306;12.862;2023-07-16T15:22:10;27.50;99.90
12043;DHT22;6082;49.306;12.862;2023-07-16T15:24:36;27.40;99.90
12043;DHT22;6082;49.306;12.862;2023-07-16T15:27:02;27.40;99.90
12043;DHT22;6082;49.306;12.862;2023-07-16T15:29:29;27.30;99.90
12043;DHT22;6082;49.306;12.862;2023-07-16T15:31:55;27.30;99.90